createdAt,value
2023-02-22T00:00:49.805Z,6.40
2023-02-22T00:03:24.845Z,6.40
2023-02-22T00:05:58.252Z,6.40
2023-02-22T00:08:30.479Z,6.40
2023-02-22T00:10:59.032Z,6.40
2023-02-22T00:13:29.394Z,6.40
2023-02-22T00:15:57.903Z,6.30
2023-02-22T00:18:27.983Z,6.30
2023-02-22T00:21:00.117Z,6.40
2023-02-22T00:23:30.327Z,6.40
2023-02-22T00:25:59.709Z,6.40
2023-02-22T00:28:28.056Z,6.50
2023-02-22T00:30:56.038Z,6.50
2023-02-22T00:33:24.900Z,6.40
2023-02-22T00:35:52.876Z,6.30
2023-02-22T00:38:24.648Z,6.30
2023-02-22T00:40:53.229Z,6.30
2023-02-22T00:43:21.349Z,6.30
2023-02-22T00:45:50.155Z,6.30
2023-02-22T00:48:18.359Z,6.20
2023-02-22T00:50:48.590Z,6.20
2023-02-22T00:53:17.349Z,6.10
2023-02-22T00:55:46.660Z,6.10
2023-02-22T00:58:14.668Z,6.10
2023-02-22T01:00:44.264Z,6.10
2023-02-22T01:03:14.720Z,6.10
2023-02-22T01:05:43.020Z,6.10
2023-02-22T01:08:12.908Z,6.10
2023-02-22T01:10:41.714Z,6.00
2023-02-22T01:13:12.547Z,6.00
2023-02-22T01:15:42.636Z,6.00
2023-02-22T01:18:12.714Z,6.00
2023-02-22T01:20:40.692Z,6.00
2023-02-22T01:23:10.644Z,5.90
2023-02-22T01:25:38.820Z,5.90
2023-02-22T01:28:09.015Z,5.90
2023-02-22T01:30:40.685Z,5.80
2023-02-22T01:33:09.226Z,5.80
2023-02-22T01:35:40.905Z,5.80
2023-02-22T01:38:09.577Z,5.70
2023-02-22T01:40:39.482Z,5.70
2023-02-22T01:43:18.221Z,5.70
2023-02-22T01:45:55.255Z,5.70
2023-02-22T01:48:28.728Z,5.70
2023-02-22T01:51:00.426Z,5.70
2023-02-22T01:53:33.606Z,5.70
2023-02-22T01:56:02.388Z,5.70
2023-02-22T01:58:34.476Z,5.60
2023-02-22T02:01:03.825Z,5.60
2023-02-22T02:03:36.136Z,5.60
2023-02-22T02:06:06.942Z,5.60
2023-02-22T02:08:37.976Z,5.60
2023-02-22T02:11:09.225Z,5.60
2023-02-22T02:13:37.711Z,5.60
2023-02-22T02:16:07.516Z,5.70
2023-02-22T02:18:35.677Z,5.70
2023-02-22T02:21:41.620Z,5.70
2023-02-22T02:24:57.497Z,5.80
2023-02-22T02:27:27.827Z,5.80
2023-02-22T02:30:23.432Z,5.70
2023-02-22T02:32:58.766Z,5.70
2023-02-22T02:35:43.987Z,5.60
2023-02-22T02:38:18.666Z,5.70
2023-02-22T02:40:50.360Z,5.60
2023-02-22T02:43:28.344Z,5.60
2023-02-22T02:46:02.546Z,5.50
2023-02-22T02:48:34.745Z,5.50
2023-02-22T02:51:06.474Z,5.40
2023-02-22T02:53:37.591Z,5.40
2023-02-22T02:56:07.666Z,5.40
2023-02-22T02:58:44.554Z,5.30
2023-02-22T03:01:16.379Z,5.40
2023-02-22T03:03:53.634Z,5.30
2023-02-22T03:06:32.599Z,5.20
2023-02-22T03:09:03.523Z,5.20
2023-02-22T03:11:34.524Z,5.20
2023-02-22T03:14:06.317Z,5.20
2023-02-22T03:16:35.201Z,5.20
2023-02-22T03:19:09.042Z,5.10
2023-02-22T03:21:43.409Z,5.10
2023-02-22T03:24:12.957Z,5.10
2023-02-22T03:26:42.498Z,5.10
2023-02-22T03:29:12.212Z,5.10
2023-02-22T03:31:41.512Z,5.00
2023-02-22T03:34:12.488Z,5.00
2023-02-22T03:36:42.306Z,5.00
2023-02-22T03:39:12.415Z,5.00
2023-02-22T03:41:40.774Z,4.90
2023-02-22T03:44:09.876Z,4.80
2023-02-22T03:46:40.207Z,4.80
2023-02-22T03:49:10.826Z,4.90
2023-02-22T03:51:40.665Z,4.80
2023-02-22T03:54:08.758Z,4.80
2023-02-22T03:56:38.865Z,4.90
2023-02-22T03:59:08.011Z,4.90
2023-02-22T04:01:36.415Z,4.90
2023-02-22T04:04:04.757Z,4.90
2023-02-22T04:06:32.532Z,4.90
2023-02-22T04:09:01.699Z,4.90
2023-02-22T04:11:29.519Z,4.90
2023-02-22T04:13:58.418Z,4.90
2023-02-22T04:16:26.249Z,4.90
2023-02-22T04:18:54.052Z,4.90
2023-02-22T04:21:21.815Z,4.90
2023-02-22T04:23:49.744Z,4.80
2023-02-22T04:26:18.949Z,4.80
2023-02-22T04:28:46.776Z,4.80
2023-02-22T04:31:14.694Z,4.80
2023-02-22T04:33:42.862Z,4.80
2023-02-22T04:36:11.258Z,4.80
2023-02-22T04:38:39.114Z,4.80
2023-02-22T04:41:06.887Z,4.80
2023-02-22T04:43:36.060Z,4.70
2023-02-22T04:46:04.442Z,4.80
2023-02-22T04:48:34.781Z,4.70
2023-02-22T04:51:02.901Z,4.70
2023-02-22T04:53:30.795Z,4.70
2023-02-22T04:55:58.583Z,4.60
2023-02-22T04:58:26.373Z,4.60
2023-02-22T05:00:55.513Z,4.60
2023-02-22T05:03:23.306Z,4.60
2023-02-22T05:05:52.780Z,4.60
2023-02-22T05:08:20.717Z,4.60
2023-02-22T05:10:48.827Z,4.60
2023-02-22T05:13:16.675Z,4.60
2023-02-22T05:15:44.513Z,4.70
2023-02-22T05:18:13.657Z,4.60
2023-02-22T05:20:43.757Z,4.70
2023-02-22T05:23:11.731Z,4.60
2023-02-22T05:25:39.702Z,4.60
2023-02-22T05:28:09.616Z,4.60
2023-02-22T05:30:40.731Z,4.60
2023-02-22T05:33:09.044Z,4.60
2023-02-22T05:35:38.213Z,4.50
2023-02-22T05:38:06.471Z,4.50
2023-02-22T05:40:35.058Z,4.50
2023-02-22T05:43:03.282Z,4.50
2023-02-22T05:45:31.208Z,4.50
2023-02-22T05:47:59.130Z,4.50
2023-02-22T05:50:27.083Z,4.40
2023-02-22T05:52:56.774Z,4.40
2023-02-22T05:55:24.970Z,4.40
2023-02-22T05:57:53.148Z,4.40
2023-02-22T06:00:23.210Z,4.40
2023-02-22T06:02:54.891Z,4.40
2023-02-22T06:05:22.941Z,4.30
2023-02-22T06:07:51.006Z,4.40
2023-02-22T06:10:21.159Z,4.30
2023-02-22T06:12:49.229Z,4.30
2023-02-22T06:15:19.820Z,4.30
2023-02-22T06:17:48.177Z,4.30
2023-02-22T06:20:16.799Z,4.40
2023-02-22T06:22:45.640Z,4.40
2023-02-22T06:25:16.786Z,4.30
2023-02-22T06:27:46.039Z,4.30
2023-02-22T06:30:14.713Z,4.30
2023-02-22T06:32:42.665Z,4.40
2023-02-22T06:35:10.484Z,4.40
2023-02-22T06:37:38.659Z,4.40
2023-02-22T06:40:06.734Z,4.40
2023-02-22T06:42:34.565Z,4.40
2023-02-22T06:45:03.727Z,4.40
2023-02-22T06:47:31.522Z,4.40
2023-02-22T06:50:00.880Z,4.40
2023-02-22T06:52:28.657Z,4.40
2023-02-22T06:54:56.537Z,4.40
2023-02-22T06:57:25.130Z,4.40
2023-02-22T06:59:52.925Z,4.40
2023-02-22T07:02:22.132Z,4.40
2023-02-22T07:04:49.952Z,4.40
2023-02-22T07:07:17.856Z,4.40
2023-02-22T07:09:47.153Z,4.40
2023-02-22T07:12:15.247Z,4.40
2023-02-22T07:14:43.835Z,4.40
2023-02-22T07:17:11.802Z,4.40
2023-02-22T07:19:41.108Z,4.50
2023-02-22T07:22:09.130Z,4.60
2023-02-22T07:24:37.122Z,4.70
2023-02-22T07:27:05.267Z,4.60
2023-02-22T07:29:36.019Z,4.70
2023-02-22T07:32:04.344Z,4.70
2023-02-22T07:34:32.605Z,4.70
2023-02-22T07:37:01.894Z,4.80
2023-02-22T07:39:29.881Z,4.80
2023-02-22T07:41:57.885Z,4.80
2023-02-22T07:44:25.882Z,4.90
2023-02-22T07:46:53.908Z,4.90
2023-02-22T07:49:24.095Z,4.90
2023-02-22T07:51:52.059Z,4.90
2023-02-22T07:54:21.824Z,4.90
2023-02-22T07:56:50.184Z,4.90
2023-02-22T07:59:18.253Z,4.90
2023-02-22T08:01:46.347Z,5.00
2023-02-22T08:04:14.506Z,5.00
2023-02-22T08:06:48.378Z,5.10
2023-02-22T08:09:16.491Z,5.20
2023-02-22T08:11:45.915Z,5.20
2023-02-22T08:14:17.281Z,5.20
2023-02-22T08:16:45.264Z,5.20
2023-02-22T08:19:13.292Z,5.30
2023-02-22T08:21:41.386Z,5.30
2023-02-22T08:24:09.502Z,5.30
2023-02-22T08:26:37.463Z,5.40
2023-02-22T08:29:06.819Z,5.40
2023-02-22T08:31:34.922Z,5.40
2023-02-22T08:34:03.495Z,5.50
2023-02-22T08:36:32.990Z,5.50
2023-02-22T08:39:00.976Z,5.60
2023-02-22T08:41:30.437Z,5.60
2023-02-22T08:44:01.283Z,5.60
2023-02-22T08:46:30.620Z,5.70
2023-02-22T08:48:58.600Z,5.70
2023-02-22T08:51:27.869Z,5.70
2023-02-22T08:53:56.213Z,5.80
2023-02-22T08:56:24.288Z,5.80
2023-02-22T08:58:52.324Z,5.90
2023-02-22T09:01:32.617Z,5.90
2023-02-22T09:04:03.031Z,6.00
2023-02-22T09:06:31.537Z,6.10
2023-02-22T09:08:59.619Z,6.10
2023-02-22T09:11:27.608Z,6.20
2023-02-22T09:13:55.656Z,6.20
2023-02-22T09:16:23.704Z,6.30
2023-02-22T09:18:51.713Z,6.30
2023-02-22T09:21:21.099Z,6.30
2023-02-22T09:23:49.444Z,6.30
2023-02-22T09:26:17.389Z,6.30
2023-02-22T09:28:45.409Z,6.40
2023-02-22T09:31:13.739Z,6.40
2023-02-22T09:33:42.748Z,6.50
2023-02-22T09:36:10.944Z,6.50
2023-02-22T09:38:40.264Z,6.60
2023-02-22T09:41:14.814Z,6.70
2023-02-22T09:43:50.207Z,6.70
2023-02-22T09:46:24.389Z,6.80
2023-02-22T09:49:07.364Z,6.90
2023-02-22T09:51:41.963Z,7.00
2023-02-22T09:54:19.074Z,7.10
2023-02-22T09:56:49.492Z,7.10
2023-02-22T09:59:24.359Z,7.20
2023-02-22T10:02:01.489Z,7.30
2023-02-22T10:04:43.138Z,7.40
2023-02-22T10:07:21.448Z,7.50
2023-02-22T10:09:51.517Z,7.50
2023-02-22T10:12:30.032Z,7.70
2023-02-22T10:15:38.858Z,7.70
2023-02-22T10:18:33.470Z,7.90
2023-02-22T10:21:08.661Z,8.00
2023-02-22T10:23:48.942Z,8.10
2023-02-22T10:26:23.257Z,8.20
2023-02-22T10:28:56.337Z,8.30
2023-02-22T10:31:29.385Z,8.40
2023-02-22T10:34:01.993Z,8.50
2023-02-22T10:36:30.339Z,8.50
2023-02-22T10:39:01.901Z,8.60
2023-02-22T10:41:34.107Z,8.70
2023-02-22T10:44:03.253Z,8.80
2023-02-22T10:46:32.947Z,9.00
2023-02-22T10:49:07.157Z,9.00
2023-02-22T10:51:35.457Z,9.10
2023-02-22T10:54:27.111Z,9.20
2023-02-22T10:56:58.021Z,9.30
2023-02-22T10:59:34.075Z,9.40
2023-02-22T11:02:09.142Z,9.40
2023-02-22T11:04:47.355Z,9.50
2023-02-22T11:07:25.313Z,9.50
2023-02-22T11:09:56.306Z,9.60
2023-02-22T11:12:32.156Z,9.70
2023-02-22T11:15:27.084Z,9.70
2023-02-22T11:17:57.469Z,9.80
2023-02-22T11:20:27.597Z,9.90
2023-02-22T11:22:58.103Z,10.00
2023-02-22T11:25:29.689Z,10.00
2023-02-22T11:28:09.482Z,10.10
2023-02-22T11:30:38.524Z,10.10
2023-02-22T11:33:23.366Z,10.20
2023-02-22T11:35:53.711Z,10.30
2023-02-22T11:38:23.854Z,10.40
2023-02-22T11:41:15.923Z,10.50
2023-02-22T11:43:47.365Z,10.60
2023-02-22T11:46:18.577Z,10.60
2023-02-22T11:48:57.307Z,10.70
2023-02-22T11:51:40.069Z,10.70
2023-02-22T11:54:31.262Z,10.80
2023-02-22T11:57:16.244Z,10.90
2023-02-22T11:59:58.730Z,10.90
2023-02-22T12:02:56.435Z,11.00
2023-02-22T12:05:37.221Z,11.00
2023-02-22T12:08:21.903Z,11.00
2023-02-22T12:11:00.607Z,11.10
2023-02-22T12:13:44.809Z,11.10
2023-02-22T12:16:28.258Z,11.20
2023-02-22T12:19:12.531Z,11.30
2023-02-22T12:21:45.298Z,11.40
2023-02-22T12:24:18.590Z,11.50
2023-02-22T12:26:51.467Z,11.60
2023-02-22T12:29:33.086Z,11.50
2023-02-22T12:32:08.009Z,11.50
2023-02-22T12:34:41.404Z,11.50
2023-02-22T12:37:17.557Z,11.50
2023-02-22T12:40:08.338Z,11.50
2023-02-22T12:42:48.279Z,11.60
2023-02-22T12:45:27.130Z,11.70
2023-02-22T12:48:03.348Z,11.70
2023-02-22T12:50:34.522Z,11.60
2023-02-22T12:53:14.060Z,11.70
2023-02-22T12:55:48.675Z,11.70
2023-02-22T12:58:25.890Z,11.70
2023-02-22T13:01:01.362Z,11.80
2023-02-22T13:03:35.629Z,11.70
2023-02-22T13:06:25.909Z,11.80
2023-02-22T13:09:09.511Z,11.80
2023-02-22T13:11:44.706Z,11.80
2023-02-22T13:14:36.723Z,11.80
2023-02-22T13:17:14.833Z,11.80
2023-02-22T13:19:51.609Z,11.80
2023-02-22T13:22:25.628Z,11.80
2023-02-22T13:25:11.312Z,11.90
2023-02-22T13:27:44.346Z,11.90
2023-02-22T13:30:21.303Z,11.90
2023-02-22T13:33:23.391Z,11.90
2023-02-22T13:36:18.372Z,11.90
2023-02-22T13:39:05.409Z,11.90
2023-02-22T13:41:57.907Z,11.90
2023-02-22T13:45:03.965Z,11.80
2023-02-22T13:47:53.691Z,11.80
2023-02-22T13:51:07.235Z,11.80
2023-02-22T13:53:45.274Z,11.70
2023-02-22T13:56:15.944Z,11.70
2023-02-22T13:58:55.240Z,11.70
2023-02-22T14:01:42.712Z,11.70
2023-02-22T14:04:37.109Z,11.80
2023-02-22T14:07:21.627Z,11.80
2023-02-22T14:09:52.395Z,11.90
2023-02-22T14:12:51.326Z,12.00
2023-02-22T14:15:30.864Z,12.00
2023-02-22T14:18:01.980Z,12.00
2023-02-22T14:20:35.188Z,12.00
2023-02-22T14:23:35.095Z,12.10
2023-02-22T14:26:15.237Z,12.00
2023-02-22T14:28:51.286Z,12.00
2023-02-22T14:31:35.074Z,12.00
2023-02-22T14:34:10.450Z,11.90
2023-02-22T14:36:45.213Z,12.00
2023-02-22T14:39:20.670Z,12.00
2023-02-22T14:41:56.412Z,12.10
2023-02-22T14:44:28.895Z,12.00
2023-02-22T14:47:02.266Z,12.00
2023-02-22T14:49:36.089Z,12.00
2023-02-22T14:52:16.181Z,12.00
2023-02-22T14:54:54.211Z,12.00
2023-02-22T14:57:29.558Z,12.00
2023-02-22T15:00:21.020Z,12.00
2023-02-22T15:02:52.454Z,12.00
2023-02-22T15:05:21.380Z,11.90
2023-02-22T15:07:54.547Z,11.90
2023-02-22T15:10:28.108Z,11.90
2023-02-22T15:13:09.801Z,11.90
2023-02-22T15:15:40.794Z,11.90
2023-02-22T15:18:18.842Z,11.90
2023-02-22T15:20:48.428Z,11.90
2023-02-22T15:23:17.115Z,11.80
2023-02-22T15:25:50.598Z,11.80
2023-02-22T15:28:20.953Z,11.80
2023-02-22T15:30:48.968Z,11.80
2023-02-22T15:33:24.290Z,11.80
2023-02-22T15:35:57.562Z,11.70
2023-02-22T15:38:31.122Z,11.70
2023-02-22T15:41:04.331Z,11.70
2023-02-22T15:43:34.591Z,11.70
2023-02-22T15:46:03.169Z,11.60
2023-02-22T15:48:31.962Z,11.60
2023-02-22T15:51:07.733Z,11.60
2023-02-22T15:53:43.710Z,11.60
2023-02-22T15:56:15.965Z,11.50
2023-02-22T15:58:47.242Z,11.50
2023-02-22T16:01:19.037Z,11.40
2023-02-22T16:03:50.912Z,11.40
2023-02-22T16:06:29.652Z,11.40
2023-02-22T16:09:00.285Z,11.30
2023-02-22T16:11:32.583Z,11.30
2023-02-22T16:14:05.386Z,11.30
2023-02-22T16:16:34.887Z,11.20
2023-02-22T16:19:28.701Z,11.20
2023-02-22T16:21:58.397Z,11.10
2023-02-22T16:24:31.112Z,11.00
2023-02-22T16:27:10.408Z,11.00
2023-02-22T16:29:39.794Z,11.00
2023-02-22T16:32:07.988Z,10.90
2023-02-22T16:34:36.072Z,10.90
2023-02-22T16:37:04.306Z,10.80
2023-02-22T16:39:36.019Z,10.80
2023-02-22T16:42:09.845Z,10.70
2023-02-22T16:44:39.393Z,10.70
2023-02-22T16:47:07.403Z,10.70
2023-02-22T16:49:35.434Z,10.60
2023-02-22T16:52:08.286Z,10.60
2023-02-22T16:54:42.971Z,10.60
2023-02-22T16:57:17.890Z,10.50
2023-02-22T16:59:50.329Z,10.50
2023-02-22T17:02:18.312Z,10.40
2023-02-22T17:04:49.638Z,10.40
2023-02-22T17:07:19.210Z,10.40
2023-02-22T17:09:47.321Z,10.30
2023-02-22T17:12:15.443Z,10.20
2023-02-22T17:14:47.441Z,10.20
2023-02-22T17:17:16.497Z,10.20
2023-02-22T17:19:44.683Z,10.20
2023-02-22T17:22:19.031Z,10.10
2023-02-22T17:24:47.265Z,10.10
2023-02-22T17:27:15.451Z,10.10
2023-02-22T17:29:45.069Z,10.10
2023-02-22T17:32:14.679Z,10.00
2023-02-22T17:34:42.715Z,10.00
2023-02-22T17:37:10.671Z,10.00
2023-02-22T17:39:38.624Z,10.00
2023-02-22T17:42:06.726Z,10.00
2023-02-22T17:44:35.335Z,9.90
2023-02-22T17:47:03.308Z,9.90
2023-02-22T17:49:32.589Z,9.80
2023-02-22T17:52:02.758Z,9.80
2023-02-22T17:54:30.874Z,9.80
2023-02-22T17:56:58.855Z,9.80
2023-02-22T17:59:26.910Z,9.80
2023-02-22T18:01:55.032Z,9.70
2023-02-22T18:04:23.071Z,9.60
2023-02-22T18:06:53.323Z,9.60
2023-02-22T18:09:21.574Z,9.60
2023-02-22T18:11:49.632Z,9.60
2023-02-22T18:14:17.607Z,9.50
2023-02-22T18:16:46.904Z,9.50
2023-02-22T18:19:20.371Z,9.50
2023-02-22T18:21:50.105Z,9.50
2023-02-22T18:24:19.512Z,9.40
2023-02-22T18:26:47.609Z,9.40
2023-02-22T18:29:15.650Z,9.40
2023-02-22T18:31:45.376Z,9.40
2023-02-22T18:34:13.511Z,9.40
2023-02-22T18:36:41.480Z,9.40
2023-02-22T18:39:11.814Z,9.40
2023-02-22T18:41:41.216Z,9.30
2023-02-22T18:44:11.085Z,9.30
2023-02-22T18:46:39.138Z,9.30
2023-02-22T18:49:07.162Z,9.30
2023-02-22T18:51:35.819Z,9.20
2023-02-22T18:54:03.806Z,9.20
2023-02-22T18:56:31.894Z,9.10
2023-02-22T18:59:03.221Z,9.10
2023-02-22T19:01:35.708Z,9.10
2023-02-22T19:04:03.762Z,9.10
2023-02-22T19:06:35.038Z,9.10
2023-02-22T19:09:04.670Z,9.10
2023-02-22T19:11:32.616Z,9.10
2023-02-22T19:14:04.049Z,9.00
2023-02-22T19:16:32.435Z,9.00
2023-02-22T19:19:00.429Z,9.00
2023-02-22T19:21:29.973Z,9.00
2023-02-22T19:23:58.086Z,8.90
2023-02-22T19:26:29.019Z,8.90
2023-02-22T19:28:58.598Z,8.80
2023-02-22T19:31:31.543Z,8.80
2023-02-22T19:34:01.970Z,8.80
2023-02-22T19:36:30.211Z,8.80
2023-02-22T19:39:01.662Z,8.70
2023-02-22T19:41:30.271Z,8.80
2023-02-22T19:43:58.995Z,8.70
2023-02-22T19:46:28.431Z,8.70
2023-02-22T19:48:57.044Z,8.70
2023-02-22T19:51:27.948Z,8.60
2023-02-22T19:53:58.811Z,8.60
2023-02-22T19:56:28.384Z,8.60
2023-02-22T19:58:58.133Z,8.60
2023-02-22T20:01:30.281Z,8.50
2023-02-22T20:04:00.936Z,8.50
2023-02-22T20:06:30.641Z,8.50
2023-02-22T20:08:59.004Z,8.50
2023-02-22T20:11:27.691Z,8.40
2023-02-22T20:13:56.522Z,8.50
2023-02-22T20:16:25.060Z,8.50
2023-02-22T20:18:56.057Z,8.40
2023-02-22T20:21:30.913Z,8.40
2023-02-22T20:23:59.498Z,8.40
2023-02-22T20:26:30.566Z,8.30
2023-02-22T20:28:59.589Z,8.30
2023-02-22T20:31:29.691Z,8.30
2023-02-22T20:34:01.565Z,8.20
2023-02-22T20:36:30.888Z,8.20
2023-02-22T20:39:01.942Z,8.20
2023-02-22T20:41:32.394Z,8.20
2023-02-22T20:44:02.200Z,8.10
2023-02-22T20:46:32.544Z,8.10
2023-02-22T20:49:03.464Z,8.20
2023-02-22T20:51:32.065Z,8.10
2023-02-22T20:54:01.374Z,8.10
2023-02-22T20:56:30.970Z,8.10
2023-02-22T20:59:01.036Z,8.10
2023-02-22T21:01:31.435Z,8.00
2023-02-22T21:04:05.065Z,8.00
2023-02-22T21:06:35.374Z,8.00
2023-02-22T21:09:07.321Z,7.90
2023-02-22T21:11:35.712Z,7.90
2023-02-22T21:14:04.567Z,7.90
2023-02-22T21:16:34.292Z,7.90
2023-02-22T21:19:06.686Z,7.90
2023-02-22T21:21:36.051Z,7.90
2023-02-22T21:24:04.461Z,7.80
2023-02-22T21:26:35.188Z,7.80
2023-02-22T21:29:05.680Z,7.80
2023-02-22T21:31:34.997Z,7.70
2023-02-22T21:34:05.523Z,7.70
2023-02-22T21:36:33.623Z,7.70
2023-02-22T21:39:08.417Z,7.70
2023-02-22T21:41:39.165Z,7.70
2023-02-22T21:44:08.526Z,7.70
2023-02-22T21:46:36.478Z,7.70
2023-02-22T21:49:06.013Z,7.70
2023-02-22T21:51:35.458Z,7.70
2023-02-22T21:54:06.114Z,7.60
2023-02-22T21:56:36.945Z,7.60
2023-02-22T21:59:07.264Z,7.60
2023-02-22T22:01:37.760Z,7.60
2023-02-22T22:04:09.605Z,7.70
2023-02-22T22:06:37.603Z,7.60
2023-02-22T22:09:18.147Z,7.60
2023-02-22T22:11:49.608Z,7.60
2023-02-22T22:14:18.673Z,7.60
2023-02-22T22:16:51.442Z,7.50
2023-02-22T22:19:21.164Z,7.50
2023-02-22T22:21:53.333Z,7.50
2023-02-22T22:24:22.439Z,7.50
2023-02-22T22:26:54.764Z,7.60
2023-02-22T22:29:24.467Z,7.60
2023-02-22T22:31:52.953Z,7.50
2023-02-22T22:34:24.329Z,7.60
2023-02-22T22:36:52.732Z,7.60
2023-02-22T22:39:21.077Z,7.50
2023-02-22T22:41:49.760Z,7.50
2023-02-22T22:44:22.223Z,7.50
2023-02-22T22:46:53.705Z,7.60
2023-02-22T22:49:25.309Z,7.70
2023-02-22T22:51:54.670Z,7.70
2023-02-22T22:54:22.637Z,7.70
2023-02-22T22:56:50.597Z,7.60
2023-02-22T22:59:18.577Z,7.70
2023-02-22T23:01:46.521Z,7.70
2023-02-22T23:04:17.345Z,7.60
2023-02-22T23:06:49.892Z,7.70
2023-02-22T23:09:21.745Z,7.60
2023-02-22T23:11:53.325Z,7.70
2023-02-22T23:14:24.160Z,7.70
2023-02-22T23:16:55.326Z,7.70
2023-02-22T23:19:24.246Z,7.60
2023-02-22T23:21:55.983Z,7.60
2023-02-22T23:24:27.310Z,7.60
2023-02-22T23:26:59.878Z,7.30
2023-02-22T23:29:29.885Z,7.20
2023-02-22T23:31:58.739Z,7.00
2023-02-22T23:34:29.009Z,7.20
2023-02-22T23:36:58.401Z,7.40
2023-02-22T23:39:27.261Z,7.40
2023-02-22T23:41:56.924Z,7.50
2023-02-22T23:44:27.040Z,7.50
2023-02-22T23:46:55.966Z,7.60
2023-02-22T23:49:24.848Z,7.60
2023-02-22T23:51:52.968Z,7.50
2023-02-22T23:54:24.507Z,7.50
2023-02-22T23:56:56.874Z,7.40
2023-02-22T23:59:26.137Z,7.20
